Vileyka, Belarus

4:50 PM FET on September 19, 2014 (GMT +0300)
Minsk | Change Station
CLOSE
Current Station
Airport
Location: Minsk,
Elevation: 748 ft
Nearby Weather Stations

Elev 748 ft 53.86 °N, 27.54 °E | Updated 20 minutes ago

Clear
Clear
63 °F
Feels Like 63 °F
N
11
Wind Variable Wind from SSE

Today
High -- | Low -- °F
--% Chance of Precip.
Yesterday
High -- | Low -- °F
Precip. -- in
6:52 AM 7:19 PM
Waning Crescent, 19% visible
Pressure 30.24 in
Visibility -9999.0 miles
Clouds
Dew Point 37 °F
Humidity 39%
Rainfall 0.00 in
Snow Depth Not available.
UV Not available.
Pollen Not available.
Air Quality Not available.
Flu Activity Not available.
METAR UMMM 191330Z 16005MPS CAVOK 17/03 Q1024 R12/CLRD60 NOSIG RMK QFE748

More Conditions Fewer Conditions

Pressure 30.24 in
Visibility -9999.0 miles
Clouds
Dew Point 37 °F
Humidity 39%
Rainfall 0.00 in
Snow Depth Not available.
UV Not available.
Pollen Not available.
Air Quality Not available.
Flu Activity Not available.
METAR UMMM 191330Z 16005MPS CAVOK 17/03 Q1024 R12/CLRD60 NOSIG RMK QFE748

More Conditions Fewer Conditions

10-Day Weather Forecast

Almanac

Astronomy

Sep. 19, 2014 Rise Set
Actual Time 6:52 AM FET 7:19 PM FET
Civil Twilight 6:16 AM FET 7:55 PM FET
Nautical Twilight 5:33 AM FET 8:37 PM FET
Astronomical Twilight 4:47 AM FET 9:23 PM FET
Moon 1:45 AM FET 5:06 PM FET
Length of Visible Light 13h 39m
Length of Day
12h 27m
Tomorrow will be 4m 21s shorter.
Waning Crescent, 19% of the Moon is Illuminated
Today
Waning Crescent
Sep 24
New
Oct 1
First Quarter
Oct 8
Full
Oct 15
Last Quarter

Yesterday's Extremes

Country Highs Country Lows

Community

WunderPhotos

Upload Photos

1,754,608 photos uploaded!

WunderBlogs® & News

Nearby

Snow Depth

Not available.

Earthquake Activity

City Distance Mag. Time & Date
No recent earthquake activity has been reported nearby.
Minimum magnitude displayed is 2.5.

Coastal Water Temperatures

Place Temperature
No Stations Reporting

Nearby Weather Stations